Time;durP1;ratioP1;P1;durP2;ratioP2;P2;SDS_P1;SDS_P2;PMS_P1;PMS_P2;Temp;Humidity;BMP_temperature;BMP_pressure;BME280_temperature;BME280_humidity;BME280_pressure;Samples;Min_cycle;Max_cycle;Signal;HPM_P1;HPM_P2
2022/11/21 00:00:31;;;;;;;23.73;15.30;;;5.20;99.90;;;;;;5072922;28;20282;-77
2022/11/21 00:03:02;;;;;;;24.37;15.27;;;5.20;99.90;;;;;;5071633;28;20198;-78
2022/11/21 00:05:29;;;;;;;23.17;15.00;;;5.20;99.90;;;;;;5072980;28;20170;-77
2022/11/21 00:07:56;;;;;;;28.67;15.70;;;5.20;99.90;;;;;;5071565;28;20197;-77
2022/11/21 00:10:22;;;;;;;26.50;15.50;;;5.10;99.90;;;;;;5073215;28;20297;-77
2022/11/21 00:12:52;;;;;;;27.00;15.40;;;5.10;99.90;;;;;;5072075;28;20269;-77
2022/11/21 00:15:18;;;;;;;26.00;14.97;;;5.10;99.90;;;;;;5099016;22;20232;-78
2022/11/21 00:17:43;;;;;;;29.23;16.87;;;5.10;99.90;;;;;;5087222;28;20155;-78
2022/11/21 00:20:09;;;;;;;28.30;15.93;;;5.10;99.90;;;;;;5088008;28;20178;-78
2022/11/21 00:22:35;;;;;;;29.93;16.60;;;5.00;99.90;;;;;;5083644;28;20687;-78
2022/11/21 00:25:00;;;;;;;30.00;16.40;;;5.00;99.90;;;;;;5074183;28;20187;-78
2022/11/21 00:27:26;;;;;;;31.63;16.57;;;4.80;99.90;;;;;;5073468;28;20175;-77
2022/11/21 00:29:51;;;;;;;30.33;16.07;;;4.90;99.90;;;;;;5073468;28;20539;-78
2022/11/21 00:32:17;;;;;;;32.10;16.30;;;4.90;99.90;;;;;;5071646;28;20187;-78
2022/11/21 00:34:42;;;;;;;34.67;18.07;;;4.90;99.90;;;;;;5071330;28;20190;-77
2022/11/21 00:37:08;;;;;;;36.37;18.63;;;4.90;99.90;;;;;;5073165;28;20656;-78
2022/11/21 00:39:33;;;;;;;35.50;18.70;;;4.80;99.90;;;;;;5073107;28;20655;-78
2022/11/21 00:42:00;;;;;;;39.37;19.53;;;4.80;99.90;;;;;;5073073;28;20214;-77
2022/11/21 00:44:25;;;;;;;36.50;19.13;;;4.80;99.90;;;;;;5072203;28;20173;-78
2022/11/21 00:46:51;;;;;;;43.70;21.43;;;4.90;99.90;;;;;;5076166;28;20195;-78
2022/11/21 00:49:16;;;;;;;35.47;19.50;;;4.90;99.90;;;;;;5076831;28;20175;-76
2022/11/21 00:51:42;;;;;;;39.47;20.17;;;4.80;99.90;;;;;;5075510;28;20166;-78
2022/11/21 00:54:08;;;;;;;44.40;21.37;;;4.80;99.90;;;;;;5076355;28;20171;-77
2022/11/21 00:56:33;;;;;;;44.90;23.30;;;4.90;99.90;;;;;;5075345;28;20576;-78
2022/11/21 00:58:59;;;;;;;48.17;23.07;;;4.80;99.90;;;;;;5074685;28;20671;-77
2022/11/21 01:01:24;;;;;;;45.60;24.00;;;4.80;99.90;;;;;;5076308;28;20171;-78
2022/11/21 01:03:50;;;;;;;48.23;22.40;;;4.80;99.90;;;;;;5074750;28;20814;-78
2022/11/21 01:06:15;;;;;;;48.00;24.63;;;4.80;99.90;;;;;;5075709;28;20187;-78
2022/11/21 01:08:43;;;;;;;48.60;24.70;;;4.80;99.90;;;;;;5075574;28;20178;-79
2022/11/21 01:11:11;;;;;;;51.07;24.10;;;4.80;99.90;;;;;;5075735;28;20198;-77
2022/11/21 01:13:37;;;;;;;53.23;25.00;;;4.80;99.90;;;;;;5075817;28;20175;-77
2022/11/21 01:16:14;;;;;;;50.67;25.27;;;4.80;99.90;;;;;;5075438;28;20229;-77
2022/11/21 01:18:41;;;;;;;46.67;25.73;;;4.80;99.90;;;;;;5075906;28;20337;-77
2022/11/21 01:21:15;;;;;;;51.27;24.33;;;4.80;99.90;;;;;;5075572;28;20175;-77
2022/11/21 01:23:41;;;;;;;48.30;24.80;;;4.90;99.90;;;;;;5075826;28;20221;-77
2022/11/21 01:26:15;;;;;;;43.23;23.23;;;4.90;99.90;;;;;;5076114;28;20194;-77
2022/11/21 01:28:41;;;;;;;48.50;24.37;;;4.90;99.90;;;;;;5078167;28;20185;-78
2022/11/21 01:31:12;;;;;;;50.60;24.20;;;4.90;99.90;;;;;;5076339;28;20641;-77
2022/11/21 01:33:39;;;;;;;48.93;24.57;;;4.90;99.90;;;;;;5076245;28;20509;-77
2022/11/21 01:36:11;;;;;;;41.33;21.90;;;4.90;99.90;;;;;;5075226;28;20199;-77
2022/11/21 01:38:38;;;;;;;41.73;23.03;;;4.90;99.90;;;;;;5073954;28;20178;-78
2022/11/21 01:41:05;;;;;;;45.40;21.80;;;5.00;99.90;;;;;;5075636;28;20235;-77
2022/11/21 01:43:30;;;;;;;35.53;20.60;;;5.00;99.90;;;;;;5074082;28;20281;-77
2022/11/21 01:46:04;;;;;;;37.23;20.77;;;4.90;99.90;;;;;;5073654;28;20720;-77
2022/11/21 01:48:57;;;;;;;38.20;20.83;;;4.80;99.90;;;;;;5075333;28;20505;-78
2022/11/21 01:51:29;;;;;;;37.20;20.00;;;4.80;99.90;;;;;;5073897;28;20617;-77
2022/11/21 01:54:18;;;;;;;36.33;20.50;;;4.80;99.90;;;;;;5074021;28;20167;-77
2022/11/21 01:57:13;;;;;;;35.07;19.43;;;4.90;99.90;;;;;;5079893;28;20214;-77
2022/11/21 01:59:49;;;;;;;37.73;19.87;;;4.90;99.90;;;;;;5075122;28;20236;-77
2022/11/21 02:02:18;;;;;;;34.03;19.13;;;4.80;99.90;;;;;;5075205;28;20585;-78
2022/11/21 02:04:45;;;;;;;37.20;20.03;;;4.80;99.90;;;;;;5074562;28;20194;-78
2022/11/21 02:07:13;;;;;;;36.73;19.67;;;4.80;99.90;;;;;;5073472;28;20178;-77
2022/11/21 02:09:44;;;;;;;31.57;18.70;;;4.80;99.90;;;;;;5074458;28;20173;-77
2022/11/21 02:12:21;;;;;;;34.97;19.33;;;4.80;99.90;;;;;;5073129;28;20174;-77
2022/11/21 02:14:47;;;;;;;38.27;20.03;;;4.90;99.90;;;;;;5074184;28;20178;-78
2022/11/21 02:17:13;;;;;;;37.27;19.93;;;4.90;99.90;;;;;;5073094;28;20179;-77
2022/11/21 02:19:45;;;;;;;36.60;20.83;;;4.90;99.90;;;;;;5074696;28;20224;-77
2022/11/21 02:22:41;;;;;;;41.80;21.63;;;4.90;99.90;;;;;;5072938;28;20175;-77
2022/11/21 02:25:11;;;;;;;37.67;20.47;;;4.80;99.90;;;;;;5074802;28;20799;-77
2022/11/21 02:27:37;;;;;;;43.17;21.03;;;4.80;99.90;;;;;;5078148;28;20178;-77
2022/11/21 02:30:06;;;;;;;40.60;20.73;;;4.80;99.90;;;;;;5077322;28;20167;-78
2022/11/21 02:32:46;;;;;;;36.13;20.40;;;4.80;99.90;;;;;;5075229;28;20540;-78
2022/11/21 02:35:15;;;;;;;36.43;19.57;;;4.80;99.90;;;;;;5072639;28;20606;-77
2022/11/21 02:37:43;;;;;;;33.87;19.87;;;4.80;99.90;;;;;;5074291;28;20175;-77
2022/11/21 02:40:17;;;;;;;36.30;20.70;;;4.80;99.90;;;;;;5073763;28;20179;-78
2022/11/21 02:42:54;;;;;;;41.23;20.80;;;4.80;99.90;;;;;;5073715;28;20183;-77
2022/11/21 02:45:25;;;;;;;40.30;21.90;;;4.80;99.90;;;;;;5073764;28;20532;-77
2022/11/21 02:51:13;;;;;;;39.67;19.33;;;4.80;99.90;;;;;;5073569;28;20197;-77
2022/11/21 02:53:38;;;;;;;39.30;20.80;;;4.80;99.90;;;;;;5073527;28;20182;-77
2022/11/21 02:56:04;;;;;;;38.83;20.57;;;4.80;99.90;;;;;;5072270;28;20230;-77
2022/11/21 02:58:29;;;;;;;39.90;19.80;;;4.80;99.90;;;;;;5073526;28;20553;-77
2022/11/21 03:00:55;;;;;;;38.17;22.00;;;4.80;99.90;;;;;;5071999;28;20179;-77
2022/11/21 03:03:21;;;;;;;40.47;20.70;;;4.80;99.90;;;;;;5072004;28;20202;-77
2022/11/21 03:05:47;;;;;;;36.93;19.70;;;4.80;99.90;;;;;;5073383;28;20205;-77
2022/11/21 03:08:13;;;;;;;34.97;19.97;;;4.80;99.90;;;;;;5071947;28;20556;-77
2022/11/21 03:10:38;;;;;;;41.37;20.53;;;4.80;99.90;;;;;;5073807;28;20189;-77
2022/11/21 03:13:04;;;;;;;37.07;21.07;;;4.80;99.90;;;;;;5072099;28;20182;-77
2022/11/21 03:15:32;;;;;;;39.20;21.37;;;4.90;99.90;;;;;;5071770;28;20218;-77
2022/11/21 03:18:00;;;;;;;42.13;21.83;;;4.80;99.90;;;;;;5072015;28;20187;-77
2022/11/21 03:20:25;;;;;;;43.57;21.90;;;4.90;99.90;;;;;;5073451;28;20258;-77
2022/11/21 03:22:52;;;;;;;41.53;21.10;;;4.80;99.90;;;;;;5073048;28;20286;-77
2022/11/21 03:25:18;;;;;;;41.80;21.60;;;4.90;99.90;;;;;;5071920;28;20699;-77
2022/11/21 03:27:44;;;;;;;37.73;20.43;;;4.90;99.90;;;;;;5073136;28;20182;-77
2022/11/21 03:30:10;;;;;;;44.87;21.00;;;4.80;99.90;;;;;;5071863;28;20586;-77
2022/11/21 03:32:36;;;;;;;40.73;19.43;;;4.80;99.90;;;;;;5073324;28;20175;-77
2022/11/21 03:35:01;;;;;;;41.80;19.20;;;4.80;99.90;;;;;;5072948;28;20579;-77
2022/11/21 03:37:27;;;;;;;44.37;20.83;;;4.80;99.90;;;;;;5073318;28;20193;-77
2022/11/21 03:39:52;;;;;;;46.87;19.50;;;4.80;99.90;;;;;;5072977;28;20182;-77
2022/11/21 03:42:18;;;;;;;43.20;19.40;;;4.70;99.90;;;;;;5073218;28;20257;-77
2022/11/21 03:44:43;;;;;;;46.83;20.10;;;4.80;99.90;;;;;;5072998;28;20163;-77
2022/11/21 03:47:09;;;;;;;42.00;19.77;;;4.70;99.90;;;;;;5073146;28;20171;-77
2022/11/21 03:49:34;;;;;;;37.57;19.13;;;4.80;99.90;;;;;;5074158;28;20175;-77
2022/11/21 03:52:00;;;;;;;42.93;19.83;;;4.80;99.90;;;;;;5077483;28;20163;-77
2022/11/21 03:54:25;;;;;;;53.77;23.13;;;4.80;99.90;;;;;;5073608;28;20246;-77
2022/11/21 03:56:51;;;;;;;48.67;22.00;;;4.60;99.90;;;;;;5077531;28;20617;-77
2022/11/21 03:59:16;;;;;;;45.87;23.13;;;4.60;99.90;;;;;;5075077;28;20175;-77
2022/11/21 04:01:41;;;;;;;50.30;23.20;;;4.60;99.90;;;;;;5072839;28;20163;-77
2022/11/21 04:04:07;;;;;;;52.03;22.17;;;4.60;99.90;;;;;;5073320;28;20610;-77
2022/11/21 04:06:33;;;;;;;53.60;21.97;;;4.60;99.90;;;;;;5071382;28;20205;-78
2022/11/21 04:08:58;;;;;;;54.97;23.07;;;4.70;99.90;;;;;;5071693;28;20171;-77
2022/11/21 04:11:24;;;;;;;47.80;20.87;;;4.60;99.90;;;;;;5072674;28;20569;-77
2022/11/21 04:13:52;;;;;;;49.83;20.87;;;4.60;99.90;;;;;;5072688;28;20547;-77
2022/11/21 04:16:18;;;;;;;47.40;21.10;;;4.60;99.90;;;;;;5072675;28;20213;-77
2022/11/21 04:18:43;;;;;;;47.97;20.67;;;4.60;99.90;;;;;;5072824;28;20175;-77
2022/11/21 04:21:09;;;;;;;47.70;20.07;;;4.60;99.90;;;;;;5076401;28;20171;-77
2022/11/21 04:23:35;;;;;;;45.83;19.90;;;4.60;99.90;;;;;;5074898;28;20684;-77
2022/11/21 04:26:00;;;;;;;53.27;21.17;;;4.60;99.90;;;;;;5076335;28;20696;-77
2022/11/21 04:28:26;;;;;;;43.17;19.70;;;4.70;99.90;;;;;;5076363;28;20594;-77
2022/11/21 04:30:52;;;;;;;45.07;18.83;;;4.70;99.90;;;;;;5075073;28;20254;-77
2022/11/21 04:33:18;;;;;;;45.67;19.40;;;4.70;99.90;;;;;;5075050;28;20224;-77
2022/11/21 04:35:44;;;;;;;47.63;20.17;;;4.70;99.90;;;;;;5081366;28;20194;-77
2022/11/21 04:38:11;;;;;;;44.40;18.57;;;4.70;99.90;;;;;;5087023;28;20178;-77
2022/11/21 04:40:37;;;;;;;44.17;19.10;;;4.60;99.90;;;;;;5085873;28;20175;-77
2022/11/21 04:43:03;;;;;;;37.10;17.03;;;4.60;99.90;;;;;;5076589;28;20198;-79
2022/11/21 04:45:29;;;;;;;40.60;18.27;;;4.60;99.90;;;;;;5075034;28;20584;-77
2022/11/21 04:47:54;;;;;;;40.87;18.07;;;4.50;99.90;;;;;;5076198;28;20198;-78
2022/11/21 04:50:20;;;;;;;39.87;18.80;;;4.40;99.90;;;;;;5076306;28;20178;-78
2022/11/21 04:52:54;;;;;;;39.40;17.97;;;4.40;99.90;;;;;;5076002;28;20177;-78
2022/11/21 04:55:21;;;;;;;41.30;17.97;;;4.50;99.90;;;;;;5074823;28;20205;-77
2022/11/21 04:57:47;;;;;;;41.83;18.93;;;4.50;99.90;;;;;;5076105;28;20178;-77
2022/11/21 05:00:14;;;;;;;44.20;19.17;;;4.50;99.90;;;;;;5074750;28;20179;-78
2022/11/21 05:02:39;;;;;;;41.90;17.70;;;4.60;99.90;;;;;;5075814;28;20203;-77
2022/11/21 05:05:05;;;;;;;41.70;19.13;;;4.60;99.90;;;;;;5075979;28;20278;-79
2022/11/21 05:07:31;;;;;;;37.47;17.90;;;4.60;99.90;;;;;;5074706;28;20182;-77
2022/11/21 05:09:56;;;;;;;40.77;18.23;;;4.60;99.90;;;;;;5074293;28;20517;-78
2022/11/21 05:15:06;;;;;;;45.40;18.07;;;4.60;99.90;;;;;;5075989;28;20794;-78
2022/11/21 05:17:32;;;;;;;48.23;18.50;;;4.60;99.90;;;;;;5075694;28;20234;-78
2022/11/21 05:19:57;;;;;;;43.37;19.13;;;4.60;99.90;;;;;;5075517;28;20193;-78
2022/11/21 05:22:23;;;;;;;44.93;18.73;;;4.60;99.90;;;;;;5075172;28;20568;-78
2022/11/21 05:24:48;;;;;;;35.97;17.73;;;4.60;99.90;;;;;;5075465;28;20182;-77
2022/11/21 05:27:14;;;;;;;42.23;19.43;;;4.60;99.90;;;;;;5074437;28;20167;-78
2022/11/21 05:29:39;;;;;;;38.30;17.87;;;4.60;99.90;;;;;;5074069;28;20163;-77
2022/11/21 05:32:05;;;;;;;51.07;19.23;;;4.60;99.90;;;;;;5075624;28;20171;-78
2022/11/21 05:34:30;;;;;;;39.17;17.57;;;4.60;99.90;;;;;;5075793;28;20189;-78
2022/11/21 05:36:58;;;;;;;43.23;18.80;;;4.70;99.90;;;;;;5075266;28;20190;-78
2022/11/21 05:39:24;;;;;;;41.27;18.27;;;4.70;99.90;;;;;;5076631;28;20182;-78
2022/11/21 05:41:50;;;;;;;42.00;17.87;;;4.70;99.90;;;;;;5077764;28;20178;-77
2022/11/21 05:44:16;;;;;;;46.73;18.63;;;4.70;99.90;;;;;;5076755;28;20195;-77
2022/11/21 05:46:41;;;;;;;48.73;20.03;;;4.70;99.90;;;;;;5075991;28;20187;-77
2022/11/21 05:49:07;;;;;;;47.67;19.63;;;4.70;99.90;;;;;;5076215;28;20171;-77
2022/11/21 05:51:33;;;;;;;41.50;18.07;;;4.70;99.90;;;;;;5074787;28;20187;-79
2022/11/21 05:53:59;;;;;;;52.93;20.10;;;4.70;99.90;;;;;;5079675;28;20179;-77
2022/11/21 05:56:24;;;;;;;50.27;19.17;;;4.70;99.90;;;;;;5081822;28;20199;-78
2022/11/21 05:58:50;;;;;;;47.43;19.47;;;4.70;99.90;;;;;;5087466;28;20175;-78
2022/11/21 06:03:25;;;;;;;45.30;19.60;;;4.70;99.90;;;;;;5078817;28;20171;-78
2022/11/21 06:04:01;;;;;;;48.00;19.20;;;4.70;99.90;;;;;;5078182;28;20207;-77
2022/11/21 06:06:27;;;;;;;49.93;19.73;;;4.70;99.90;;;;;;5080081;28;20220;-78
2022/11/21 06:08:52;;;;;;;46.53;20.20;;;4.70;99.90;;;;;;5081021;28;20179;-78
2022/11/21 06:11:18;;;;;;;49.03;19.73;;;4.70;99.90;;;;;;5086193;28;20190;-78
2022/11/21 06:13:44;;;;;;;46.07;19.23;;;4.70;99.90;;;;;;5086954;28;20175;-78
2022/11/21 06:16:12;;;;;;;53.80;20.20;;;4.70;99.90;;;;;;5103079;22;20230;-78
2022/11/21 06:18:40;;;;;;;46.00;20.07;;;4.70;99.90;;;;;;5074921;28;20174;-77
2022/11/21 06:21:12;;;;;;;53.70;21.60;;;4.70;99.90;;;;;;5074991;28;20170;-78
2022/11/21 06:23:38;;;;;;;42.87;19.90;;;4.70;99.90;;;;;;5074917;28;20206;-77
2022/11/21 06:26:06;;;;;;;49.17;18.60;;;4.60;99.90;;;;;;5075200;28;20264;-77
2022/11/21 06:28:36;;;;;;;48.87;19.90;;;4.70;99.90;;;;;;5074937;28;20187;-78
2022/11/21 06:31:07;;;;;;;53.23;19.90;;;4.70;99.90;;;;;;5075061;28;20174;-78
2022/11/21 06:33:33;;;;;;;44.37;18.93;;;4.70;99.90;;;;;;5075099;28;20171;-78
2022/11/21 06:36:04;;;;;;;43.87;19.37;;;4.70;99.90;;;;;;5074428;28;20195;-77
2022/11/21 06:38:30;;;;;;;48.90;20.50;;;4.70;99.90;;;;;;5074708;28;20171;-78
2022/11/21 06:40:56;;;;;;;40.23;19.20;;;4.70;99.90;;;;;;5074436;28;20182;-77
2022/11/21 06:43:21;;;;;;;46.10;20.13;;;4.70;99.90;;;;;;5074111;28;20265;-78
2022/11/21 06:45:47;;;;;;;54.10;20.00;;;4.70;99.90;;;;;;5072379;28;20186;-76
2022/11/21 06:48:12;;;;;;;48.00;19.37;;;4.80;99.90;;;;;;5074206;28;20235;-77
2022/11/21 06:50:38;;;;;;;49.93;18.67;;;4.70;99.90;;;;;;5073486;28;20565;-77
2022/11/21 06:53:04;;;;;;;44.53;19.37;;;4.70;99.90;;;;;;5073644;28;20178;-77
2022/11/21 06:55:30;;;;;;;43.03;20.07;;;4.70;99.90;;;;;;5073463;28;20571;-77
2022/11/21 06:57:57;;;;;;;49.70;19.37;;;4.80;99.90;;;;;;5073796;28;20259;-77
2022/11/21 07:00:23;;;;;;;55.23;20.57;;;4.70;99.90;;;;;;5073055;28;20252;-77
2022/11/21 07:02:49;;;;;;;50.13;19.97;;;4.80;99.90;;;;;;5073348;28;20310;-77
2022/11/21 07:05:15;;;;;;;44.77;20.33;;;4.80;99.90;;;;;;5072755;28;20174;-77
2022/11/21 07:07:40;;;;;;;45.33;19.50;;;4.80;99.90;;;;;;5072641;28;20175;-77
2022/11/21 07:10:06;;;;;;;43.37;20.33;;;4.80;99.90;;;;;;5073810;28;20229;-78
2022/11/21 07:15:17;;;;;;;48.73;19.83;;;4.90;99.90;;;;;;5073941;28;20166;-78
2022/11/21 07:17:42;;;;;;;50.87;20.77;;;4.80;99.90;;;;;;5074136;28;20171;-78
2022/11/21 07:20:09;;;;;;;46.77;20.87;;;4.80;99.90;;;;;;5073634;28;20171;-77
2022/11/21 07:22:34;;;;;;;58.13;20.90;;;4.80;99.90;;;;;;5074011;28;20202;-77
2022/11/21 07:25:00;;;;;;;54.33;21.13;;;4.80;99.90;;;;;;5072330;28;20171;-78
2022/11/21 07:27:25;;;;;;;47.00;18.97;;;4.90;99.90;;;;;;5073813;28;20191;-77
2022/11/21 07:29:51;;;;;;;50.37;20.83;;;4.90;99.90;;;;;;5074198;28;20617;-77
2022/11/21 07:32:17;;;;;;;48.53;20.67;;;4.90;99.90;;;;;;5074722;28;20657;-78
2022/11/21 07:34:42;;;;;;;46.70;19.67;;;4.90;99.90;;;;;;5074512;28;20194;-79
2022/11/21 07:37:08;;;;;;;50.00;21.17;;;4.90;99.90;;;;;;5072937;28;20669;-78
2022/11/21 07:39:33;;;;;;;53.03;21.10;;;4.90;99.90;;;;;;5073118;28;20171;-78
2022/11/21 07:41:59;;;;;;;53.60;20.43;;;4.90;99.90;;;;;;5077071;28;20170;-79
2022/11/21 07:44:24;;;;;;;49.57;20.77;;;4.90;99.90;;;;;;5079885;28;20203;-78
2022/11/21 07:46:54;;;;;;;49.83;20.33;;;4.90;99.90;;;;;;5088610;28;20247;-77
2022/11/21 07:49:19;;;;;;;51.27;22.10;;;5.00;99.90;;;;;;5085565;28;20178;-77
2022/11/21 07:51:45;;;;;;;51.43;20.47;;;5.00;99.90;;;;;;5071641;28;20220;-78
2022/11/21 07:54:10;;;;;;;49.07;20.80;;;5.00;99.90;;;;;;5074276;28;20206;-78
2022/11/21 07:56:36;;;;;;;52.17;20.87;;;5.00;99.90;;;;;;5077670;28;20195;-77
2022/11/21 07:59:01;;;;;;;51.77;21.53;;;5.00;99.90;;;;;;5076263;28;20641;-78
2022/11/21 08:01:27;;;;;;;61.33;22.57;;;5.00;99.90;;;;;;5077545;28;20281;-78
2022/11/21 08:03:52;;;;;;;55.57;21.70;;;5.10;99.90;;;;;;5076093;28;20281;-76
2022/11/21 08:06:18;;;;;;;59.27;24.20;;;5.10;99.90;;;;;;5077162;28;20194;-78
2022/11/21 08:08:43;;;;;;;58.97;23.50;;;5.10;99.90;;;;;;5077443;28;20257;-78
2022/11/21 08:11:09;;;;;;;59.10;23.00;;;5.10;99.90;;;;;;5077002;28;20230;-78
2022/11/21 08:13:34;;;;;;;52.03;22.90;;;5.10;99.90;;;;;;5075673;28;20175;-78
2022/11/21 08:16:03;;;;;;;62.70;22.23;;;5.20;99.90;;;;;;5075458;28;20206;-78
2022/11/21 08:18:29;;;;;;;50.43;21.80;;;5.20;99.90;;;;;;5077366;28;20174;-78
2022/11/21 08:20:55;;;;;;;57.53;23.37;;;5.20;99.90;;;;;;5077664;28;20172;-78
2022/11/21 08:23:20;;;;;;;58.60;23.30;;;5.20;99.90;;;;;;5075874;28;20687;-78
2022/11/21 08:25:46;;;;;;;54.57;21.23;;;5.20;99.90;;;;;;5076506;28;20594;-77
2022/11/21 08:28:12;;;;;;;58.93;22.93;;;5.30;99.90;;;;;;5076621;28;20175;-78
2022/11/21 08:30:38;;;;;;;56.90;22.90;;;5.30;99.90;;;;;;5076847;28;20167;-78
2022/11/21 08:33:05;;;;;;;61.80;23.33;;;5.30;99.90;;;;;;5077303;28;20502;-78
2022/11/21 08:35:30;;;;;;;61.67;22.87;;;5.40;99.90;;;;;;5076872;28;20677;-78
2022/11/21 08:38:00;;;;;;;56.00;22.20;;;5.40;99.90;;;;;;5076613;28;20206;-78
2022/11/21 08:40:27;;;;;;;52.20;22.70;;;5.40;99.90;;;;;;5076763;28;20644;-79
2022/11/21 08:43:03;;;;;;;58.73;22.53;;;5.40;99.90;;;;;;5076856;28;20242;-78
2022/11/21 08:45:30;;;;;;;54.73;21.93;;;5.50;99.90;;;;;;5076859;28;20226;-78
2022/11/21 08:47:55;;;;;;;57.80;21.77;;;5.50;99.90;;;;;;5076813;28;20256;-78
2022/11/21 08:50:22;;;;;;;62.77;22.17;;;5.50;99.90;;;;;;5076654;28;20676;-78
2022/11/21 08:52:47;;;;;;;56.63;21.17;;;5.60;99.90;;;;;;5076764;28;20206;-78
2022/11/21 08:55:13;;;;;;;62.83;21.63;;;5.60;99.90;;;;;;5075392;28;20179;-78
2022/11/21 08:57:39;;;;;;;51.73;21.70;;;5.60;99.90;;;;;;5075096;28;20183;-78
2022/11/21 09:00:06;;;;;;;54.63;21.30;;;5.60;99.90;;;;;;5076583;28;20548;-78
2022/11/21 09:02:32;;;;;;;58.83;22.27;;;5.60;99.90;;;;;;5076954;28;20186;-78
2022/11/21 09:04:58;;;;;;;56.23;22.17;;;5.60;99.90;;;;;;5076232;28;20705;-78
2022/11/21 09:07:24;;;;;;;49.17;20.57;;;5.70;99.90;;;;;;5076479;28;20183;-79
2022/11/21 09:09:49;;;;;;;51.87;20.70;;;5.70;99.90;;;;;;5075049;28;20652;-78
2022/11/21 09:12:15;;;;;;;52.83;20.83;;;5.70;99.90;;;;;;5076626;28;20699;-78
2022/11/21 09:20:09;;;;;;;46.27;19.67;;;5.80;99.90;;;;;;5075842;28;20587;-77
2022/11/21 09:22:34;;;;;;;51.93;21.67;;;5.80;99.90;;;;;;5076910;28;20171;-77
2022/11/21 09:25:00;;;;;;;45.93;20.37;;;5.90;99.90;;;;;;5075938;28;20685;-76
2022/11/21 09:27:26;;;;;;;45.47;20.57;;;5.90;99.90;;;;;;5074477;28;20206;-76
2022/11/21 09:29:51;;;;;;;50.10;20.17;;;6.00;99.90;;;;;;5074408;28;20175;-76
2022/11/21 09:32:17;;;;;;;46.73;20.63;;;6.00;99.90;;;;;;5074810;28;20175;-76
2022/11/21 09:34:42;;;;;;;42.00;19.47;;;6.00;99.90;;;;;;5074679;28;20182;-76
2022/11/21 09:37:08;;;;;;;50.10;19.13;;;6.10;99.90;;;;;;5072950;28;20195;-76
2022/11/21 09:39:33;;;;;;;37.63;19.00;;;6.10;99.90;;;;;;5072918;28;20204;-76
2022/11/21 09:42:17;;;;;;;38.70;18.57;;;6.20;99.90;;;;;;5074244;28;20175;-76
2022/11/21 09:45:03;;;;;;;42.97;17.30;;;6.20;99.90;;;;;;5072940;28;20175;-76
2022/11/21 09:47:35;;;;;;;32.57;17.77;;;6.30;99.90;;;;;;5074088;28;20187;-76
2022/11/21 09:50:13;;;;;;;29.30;15.03;;;6.20;99.90;;;;;;5074110;28;20579;-76
2022/11/21 09:52:56;;;;;;;30.67;15.60;;;6.30;99.90;;;;;;5072701;28;20179;-75
2022/11/21 09:55:22;;;;;;;34.37;16.10;;;6.30;99.90;;;;;;5072628;28;20163;-76
2022/11/21 09:57:48;;;;;;;28.00;14.40;;;6.40;99.90;;;;;;5072583;28;20182;-76
2022/11/21 10:00:22;;;;;;;25.23;15.43;;;6.40;99.90;;;;;;5073988;28;20171;-75
2022/11/21 10:03:00;;;;;;;30.47;14.63;;;6.50;99.90;;;;;;5072556;28;20203;-77
2022/11/21 10:05:38;;;;;;;22.57;13.93;;;6.50;99.90;;;;;;5072875;28;20182;-76
2022/11/21 10:08:24;;;;;;;26.53;14.33;;;6.50;99.90;;;;;;5073736;28;20166;-75
2022/11/21 10:10:54;;;;;;;26.33;14.73;;;6.60;99.90;;;;;;5052653;28;20191;-76
2022/11/21 10:13:35;;;;;;;19.67;13.80;;;6.60;99.90;;;;;;5073738;28;20182;-75
2022/11/21 10:16:20;;;;;;;20.80;13.33;;;6.60;99.90;;;;;;5073380;28;20206;-76
2022/11/21 10:18:59;;;;;;;24.47;13.67;;;6.60;99.90;;;;;;5073434;28;20594;-77
2022/11/21 10:22:00;;;;;;;27.10;13.70;;;6.70;99.90;;;;;;5074531;28;20163;-76
2022/11/21 10:24:47;;;;;;;22.63;12.50;;;6.70;99.90;;;;;;5072071;28;20550;-76
2022/11/21 10:27:28;;;;;;;20.73;12.93;;;6.70;99.90;;;;;;5073629;28;20198;-77
2022/11/21 10:30:20;;;;;;;25.47;12.83;;;6.70;99.90;;;;;;5074264;28;20156;-78
2022/11/21 10:33:00;;;;;;;17.83;12.53;;;6.80;99.90;;;;;;5072179;28;20235;-77
2022/11/21 10:35:38;;;;;;;24.53;13.20;;;6.80;99.90;;;;;;5072909;28;20176;-76
2022/11/21 10:38:21;;;;;;;22.40;13.50;;;6.80;99.90;;;;;;5073163;28;20534;-77
2022/11/21 10:40:49;;;;;;;17.47;12.37;;;6.80;99.90;;;;;;5074420;28;20189;-77
2022/11/21 10:46:32;;;;;;;18.13;11.23;;;6.90;99.90;;;;;;5046279;28;20775;-77
2022/11/21 10:49:02;;;;;;;21.07;12.13;;;7.00;99.90;;;;;;5074488;28;20168;-77
2022/11/21 10:51:54;;;;;;;21.13;11.77;;;7.00;99.90;;;;;;5073755;28;20246;-78
2022/11/21 10:54:32;;;;;;;23.27;12.07;;;7.00;99.90;;;;;;5078675;28;20181;-76
2022/11/21 10:57:10;;;;;;;24.13;12.00;;;7.00;99.90;;;;;;5084108;28;20193;-77
2022/11/21 10:59:35;;;;;;;21.23;11.83;;;7.00;99.90;;;;;;5081499;28;20170;-76
2022/11/21 11:02:22;;;;;;;26.00;11.60;;;7.10;99.90;;;;;;5074399;28;20232;-77
2022/11/21 11:04:48;;;;;;;25.30;10.43;;;7.10;99.90;;;;;;5074040;28;20198;-77
2022/11/21 11:07:25;;;;;;;23.40;10.73;;;7.20;99.90;;;;;;5072773;28;20198;-78
2022/11/21 11:09:52;;;;;;;25.30;10.50;;;7.30;99.90;;;;;;5073028;28;20182;-78
2022/11/21 11:12:23;;;;;;;18.33;9.93;;;7.40;99.90;;;;;;5073327;28;20216;-78
2022/11/21 11:14:54;;;;;;;19.67;9.90;;;7.40;99.90;;;;;;5073059;28;20179;-78
2022/11/21 11:17:32;;;;;;;23.63;8.70;;;7.40;99.90;;;;;;5074260;28;20211;-79
2022/11/21 11:20:22;;;;;;;17.63;8.77;;;7.50;99.90;;;;;;5072767;28;20265;-77
2022/11/21 11:22:48;;;;;;;13.83;8.30;;;7.50;99.90;;;;;;5074440;28;20202;-78
2022/11/21 11:25:14;;;;;;;19.57;9.07;;;7.50;99.90;;;;;;5073967;28;20171;-77
2022/11/21 11:27:39;;;;;;;17.33;9.03;;;7.50;99.90;;;;;;5072633;28;20232;-77
2022/11/21 11:30:06;;;;;;;16.13;8.80;;;7.50;99.90;;;;;;5072651;28;20175;-78
2022/11/21 11:32:37;;;;;;;19.20;9.40;;;7.60;99.90;;;;;;5073702;28;20637;-77
2022/11/21 11:35:11;;;;;;;15.83;9.13;;;7.60;99.90;;;;;;5074074;28;20159;-78
2022/11/21 11:37:39;;;;;;;15.87;9.30;;;7.60;99.90;;;;;;5057037;28;20179;-78
2022/11/21 11:40:29;;;;;;;13.70;8.07;;;7.60;99.90;;;;;;5061691;28;20170;-78
2022/11/21 11:49:21;;;;;;;17.63;8.23;;;7.60;99.90;;;;;;5074727;28;20177;-78
2022/11/21 11:51:54;;;;;;;15.97;8.13;;;7.60;99.90;;;;;;5074273;28;20204;-78
2022/11/21 11:54:28;;;;;;;18.40;7.80;;;7.70;99.90;;;;;;5072707;28;20771;-78
2022/11/21 11:56:54;;;;;;;15.30;8.40;;;7.70;99.90;;;;;;5074053;28;20182;-77
2022/11/21 11:59:49;;;;;;;17.17;7.07;;;7.80;99.90;;;;;;5073538;28;20178;-77
2022/11/21 12:02:23;;;;;;;17.83;7.90;;;7.80;99.90;;;;;;5069621;28;20191;-77
2022/11/21 12:04:54;;;;;;;15.73;8.10;;;7.90;99.90;;;;;;5073619;28;20160;-77
2022/11/21 12:07:47;;;;;;;16.10;7.90;;;7.90;99.90;;;;;;5072987;28;20256;-77
2022/11/21 12:12:05;;;;;;;13.10;7.10;;;8.00;99.90;;;;;;5073361;28;20159;-77
2022/11/21 12:13:28;;;;;;;14.47;6.40;;;8.00;99.90;;;;;;5072807;28;20178;-77
2022/11/21 12:18:38;;;;;;;13.73;6.47;;;8.10;99.90;;;;;;5017935;28;20216;-80
2022/11/21 12:21:19;;;;;;;15.50;6.17;;;8.10;99.90;;;;;;5019574;28;20207;-80
2022/11/21 12:23:53;;;;;;;15.33;5.73;;;8.20;99.90;;;;;;5021712;28;20271;-80
2022/11/21 12:26:38;;;;;;;18.63;5.50;;;8.30;99.90;;;;;;5019506;28;20220;-80
2022/11/21 12:29:19;;;;;;;9.80;4.50;;;8.30;99.90;;;;;;5019150;28;20177;-80
2022/11/21 12:32:00;;;;;;;14.13;4.30;;;8.40;99.90;;;;;;5022021;28;20171;-80
2022/11/21 12:34:47;;;;;;;8.47;3.90;;;8.40;99.90;;;;;;5020262;28;20219;-80
2022/11/21 12:37:34;;;;;;;11.03;4.40;;;8.40;99.90;;;;;;5020315;28;20204;-80
2022/11/21 12:40:05;;;;;;;12.97;4.40;;;8.40;99.90;;;;;;5020951;28;20195;-80
2022/11/21 12:42:48;;;;;;;7.83;4.40;;;8.40;99.90;;;;;;5019592;28;20168;-80
2022/11/21 12:45:33;;;;;;;18.53;5.13;;;8.50;99.90;;;;;;5021500;28;20171;-80
2022/11/21 12:57:03;;;;;;;9.40;5.30;;;8.30;99.90;;;;;;5022672;28;20737;-80
2022/11/21 12:59:47;;;;;;;14.87;5.30;;;8.30;99.90;;;;;;5021977;28;20169;-80
2022/11/21 13:02:30;;;;;;;12.97;5.37;;;8.30;99.90;;;;;;5020983;28;20628;-80
2022/11/21 13:04:59;;;;;;;12.70;5.80;;;8.30;99.90;;;;;;5020669;28;20172;-80
2022/11/21 13:07:29;;;;;;;8.07;5.07;;;8.20;99.90;;;;;;5018910;28;20740;-80
2022/11/21 13:09:56;;;;;;;12.40;5.80;;;8.20;99.90;;;;;;5022342;28;20541;-80
2022/11/21 13:12:38;;;;;;;11.63;5.33;;;8.20;99.90;;;;;;5021272;28;20256;-80
2022/11/21 13:15:25;;;;;;;10.43;4.97;;;8.20;99.90;;;;;;5021547;28;20165;-79
2022/11/21 13:18:20;;;;;;;16.33;4.90;;;8.20;99.90;;;;;;5020618;28;20266;-80
2022/11/21 13:20:48;;;;;;;12.33;4.90;;;8.20;99.90;;;;;;5021493;28;20184;-79
2022/11/21 13:23:35;;;;;;;10.73;4.90;;;8.30;99.90;;;;;;5021226;28;20622;-79
2022/11/21 13:26:02;;;;;;;8.17;4.90;;;8.30;99.90;;;;;;5021489;28;20625;-79